createdAt,value
2022-08-18T00:00:16.479Z,10.93
2022-08-18T00:03:00.916Z,12.77
2022-08-18T00:05:36.467Z,17.33
2022-08-18T00:08:11.276Z,12.65
2022-08-18T00:10:43.447Z,12.05
2022-08-18T00:13:15.526Z,14.40
2022-08-18T00:15:48.953Z,16.08
2022-08-18T00:18:21.457Z,13.90
2022-08-18T00:20:53.503Z,13.05
2022-08-18T00:23:25.545Z,13.77
2022-08-18T00:25:59.618Z,11.52
2022-08-18T00:28:31.723Z,12.07
2022-08-18T00:31:06.168Z,15.23
2022-08-18T00:33:38.431Z,13.80
2022-08-18T00:36:13.107Z,15.18
2022-08-18T00:38:45.126Z,17.58
2022-08-18T00:41:17.246Z,14.30
2022-08-18T00:43:52.297Z,13.75
2022-08-18T00:46:34.688Z,24.13
2022-08-18T00:49:06.665Z,12.40
2022-08-18T00:51:46.214Z,18.70
2022-08-18T00:54:26.740Z,16.25
2022-08-18T00:57:04.100Z,19.02
2022-08-18T00:59:38.855Z,17.30
2022-08-18T01:02:18.344Z,18.30
2022-08-18T01:05:01.055Z,20.13
2022-08-18T01:07:42.403Z,19.02
2022-08-18T01:10:21.819Z,28.25
2022-08-18T01:12:58.168Z,18.30
2022-08-18T01:15:30.782Z,18.67
2022-08-18T01:18:31.867Z,20.55
2022-08-18T01:21:41.529Z,25.63
2022-08-18T01:24:18.545Z,19.60
2022-08-18T01:26:53.259Z,23.17
2022-08-18T01:29:28.000Z,22.60
2022-08-18T01:32:00.119Z,23.23
2022-08-18T01:34:32.183Z,25.05
2022-08-18T01:37:05.780Z,30.83
2022-08-18T01:41:27.815Z,27.88
2022-08-18T01:42:30.891Z,44.67
2022-08-18T01:45:05.838Z,57.25
2022-08-18T01:47:47.088Z,51.30
2022-08-18T01:50:20.537Z,63.58
2022-08-18T01:52:53.792Z,56.83
2022-08-18T01:55:28.460Z,62.72
2022-08-18T01:58:01.533Z,68.78
2022-08-18T02:00:34.333Z,60.17
2022-08-18T02:03:09.905Z,70.93
2022-08-18T02:05:48.202Z,64.22
2022-08-18T02:08:20.129Z,72.22
2022-08-18T02:10:52.199Z,69.32
2022-08-18T02:13:25.168Z,65.22
2022-08-18T02:15:57.350Z,69.75
2022-08-18T02:18:47.436Z,64.80
2022-08-18T02:21:21.678Z,62.45
2022-08-18T02:23:54.182Z,63.10
2022-08-18T02:26:26.407Z,69.63
2022-08-18T02:28:58.525Z,84.72
2022-08-18T02:31:30.627Z,85.85
2022-08-18T02:34:02.753Z,78.55
2022-08-18T02:36:34.853Z,79.80
2022-08-18T02:39:06.818Z,66.05
2022-08-18T02:41:38.791Z,69.88
2022-08-18T02:44:11.588Z,62.85
2022-08-18T02:46:43.591Z,62.72
2022-08-18T02:49:15.594Z,59.67
2022-08-18T02:51:47.698Z,56.65
2022-08-18T02:54:23.265Z,52.38
2022-08-18T02:56:57.403Z,50.83
2022-08-18T02:59:31.768Z,48.58
2022-08-18T03:02:05.767Z,46.30
2022-08-18T03:04:38.166Z,48.17
2022-08-18T03:07:10.151Z,47.25
2022-08-18T03:09:42.825Z,36.78
2022-08-18T03:12:14.851Z,35.50
2022-08-18T03:14:46.889Z,37.78
2022-08-18T03:17:18.875Z,37.22
2022-08-18T03:19:50.841Z,34.75
2022-08-18T03:22:28.249Z,32.17
2022-08-18T03:25:01.775Z,38.63
2022-08-18T03:27:33.795Z,32.40
2022-08-18T03:30:11.440Z,31.27
2022-08-18T03:32:45.925Z,33.65
2022-08-18T03:35:18.348Z,33.45
2022-08-18T03:37:50.612Z,31.45
2022-08-18T03:40:22.748Z,30.67
2022-08-18T03:42:54.809Z,30.73
2022-08-18T03:45:28.674Z,31.33
2022-08-18T03:48:02.254Z,31.48
2022-08-18T03:50:34.296Z,31.20
2022-08-18T03:53:06.478Z,31.27
2022-08-18T03:55:41.962Z,41.47
2022-08-18T03:58:14.744Z,40.97
2022-08-18T04:00:46.696Z,38.38
2022-08-18T04:03:18.774Z,32.88
2022-08-18T04:05:50.719Z,42.55
2022-08-18T04:08:22.859Z,37.22
2022-08-18T04:10:54.855Z,34.35
2022-08-18T04:13:26.823Z,34.05
2022-08-18T04:16:00.137Z,35.72
2022-08-18T04:18:32.640Z,32.42
2022-08-18T04:21:08.357Z,38.03
2022-08-18T04:23:43.387Z,36.60
2022-08-18T04:26:19.434Z,36.63
2022-08-18T04:28:51.580Z,39.28
2022-08-18T04:31:24.860Z,35.63
2022-08-18T04:33:59.011Z,35.33
2022-08-18T04:36:34.612Z,45.05
2022-08-18T04:39:09.811Z,46.72
2022-08-18T04:41:44.161Z,50.90
2022-08-18T04:44:17.693Z,51.10
2022-08-18T04:46:53.096Z,48.30
2022-08-18T04:49:26.714Z,51.03
2022-08-18T04:52:22.633Z,48.78
2022-08-18T04:55:10.990Z,43.05
2022-08-18T04:57:42.998Z,41.40
2022-08-18T05:00:15.437Z,44.60
2022-08-18T05:02:47.435Z,39.10
2022-08-18T05:05:19.414Z,35.40
2022-08-18T05:07:51.601Z,38.72
2022-08-18T05:10:23.663Z,43.28
2022-08-18T05:12:55.795Z,39.05
2022-08-18T05:15:27.775Z,33.53
2022-08-18T05:17:59.807Z,33.15
2022-08-18T05:20:31.760Z,38.45
2022-08-18T05:23:04.170Z,31.70
2022-08-18T05:25:36.664Z,36.67
2022-08-18T05:28:09.938Z,33.88
2022-08-18T05:30:42.726Z,30.83
2022-08-18T05:33:14.725Z,30.40
2022-08-18T05:35:52.105Z,29.00
2022-08-18T05:39:11.718Z,23.52
2022-08-18T05:41:56.043Z,37.25
2022-08-18T05:44:31.835Z,27.02
2022-08-18T05:47:24.275Z,28.65
2022-08-18T05:50:03.682Z,28.95
2022-08-18T05:52:38.319Z,33.70
2022-08-18T05:55:40.133Z,27.20
2022-08-18T05:58:19.364Z,29.92
2022-08-18T06:01:03.565Z,31.63
2022-08-18T06:03:56.990Z,27.90
2022-08-18T06:06:31.489Z,22.52
2022-08-18T06:09:29.291Z,30.77
2022-08-18T06:12:33.627Z,34.65
2022-08-18T06:15:50.990Z,27.50
2022-08-18T06:18:56.225Z,35.00
2022-08-18T06:22:01.537Z,32.75
2022-08-18T06:24:43.031Z,24.02
2022-08-18T06:27:31.469Z,29.30
2022-08-18T06:30:20.152Z,24.63
2022-08-18T06:33:01.095Z,29.58
2022-08-18T06:35:54.859Z,28.13
2022-08-18T06:38:57.762Z,27.10
2022-08-18T06:41:42.945Z,26.13
2022-08-18T06:44:31.496Z,23.60
2022-08-18T06:47:47.539Z,17.77
2022-08-18T06:50:43.548Z,38.20
2022-08-18T06:53:26.755Z,27.35
2022-08-18T06:56:35.095Z,25.60
2022-08-18T06:59:32.194Z,28.90
2022-08-18T07:02:27.431Z,18.80
2022-08-18T07:05:22.602Z,23.27
2022-08-18T07:08:19.560Z,26.42
2022-08-18T07:10:53.395Z,24.88
2022-08-18T07:13:30.285Z,29.50
2022-08-18T07:16:56.527Z,23.45
2022-08-18T07:19:31.087Z,20.50
2022-08-18T07:22:14.674Z,26.08
2022-08-18T07:24:54.583Z,25.23
2022-08-18T07:27:49.235Z,31.92
2022-08-18T07:30:21.079Z,27.20
2022-08-18T07:33:05.181Z,21.55
2022-08-18T07:36:04.380Z,22.20
2022-08-18T07:38:47.144Z,24.25
2022-08-18T07:41:26.803Z,23.05
2022-08-18T07:44:18.708Z,24.40
2022-08-18T07:47:05.223Z,27.35
2022-08-18T07:49:43.041Z,19.40
2022-08-18T07:52:43.709Z,26.63
2022-08-18T07:55:33.430Z,23.42
2022-08-18T07:58:54.574Z,32.40
2022-08-18T08:01:41.035Z,26.05
2022-08-18T08:05:00.784Z,21.92
2022-08-18T08:07:41.780Z,20.40
2022-08-18T08:11:03.902Z,24.88
2022-08-18T08:13:55.636Z,22.30
2022-08-18T08:16:50.247Z,24.33
2022-08-18T08:19:59.992Z,26.05
2022-08-18T08:23:02.246Z,29.73
2022-08-18T08:26:18.699Z,22.17
2022-08-18T08:29:24.983Z,18.85
2022-08-18T08:32:34.581Z,24.45
2022-08-18T08:35:49.771Z,24.08
2022-08-18T08:38:42.901Z,18.10
2022-08-18T08:41:41.987Z,19.05
2022-08-18T08:44:21.604Z,20.60
2022-08-18T08:47:11.152Z,17.48
2022-08-18T08:50:00.635Z,19.23
2022-08-18T08:52:48.306Z,22.73
2022-08-18T08:55:36.394Z,21.35
2022-08-18T08:58:08.305Z,26.50
2022-08-18T09:00:42.941Z,23.50
2022-08-18T09:03:42.896Z,17.70
2022-08-18T09:06:43.581Z,20.10
2022-08-18T09:09:56.185Z,17.15
2022-08-18T09:12:55.335Z,18.75
2022-08-18T09:16:13.799Z,25.33
2022-08-18T09:19:13.770Z,19.42
2022-08-18T09:22:19.433Z,17.70
2022-08-18T09:24:56.655Z,17.33
2022-08-18T09:28:10.023Z,13.95
2022-08-18T09:31:19.623Z,22.92
2022-08-18T09:34:06.685Z,26.35
2022-08-18T09:37:04.151Z,20.35
2022-08-18T09:40:00.108Z,22.70
2022-08-18T09:43:05.967Z,21.25
2022-08-18T09:45:47.194Z,26.23
2022-08-18T09:51:36.154Z,16.75
2022-08-18T09:54:21.387Z,20.42
2022-08-18T09:57:23.607Z,17.75
2022-08-18T10:00:28.125Z,19.92
2022-08-18T10:03:11.861Z,16.00
2022-08-18T10:06:03.609Z,18.38
2022-08-18T10:09:36.681Z,15.98
2022-08-18T10:12:19.396Z,9.80
2022-08-18T10:15:08.866Z,14.60
2022-08-18T10:18:17.301Z,14.33
2022-08-18T10:21:31.074Z,13.13
2022-08-18T10:24:36.446Z,14.23
2022-08-18T10:27:32.469Z,9.35
2022-08-18T10:30:06.450Z,12.30
2022-08-18T10:32:54.225Z,9.35
2022-08-18T10:35:38.397Z,8.90
2022-08-18T10:38:30.986Z,7.13
2022-08-18T10:41:30.780Z,7.90
2022-08-18T10:44:27.390Z,8.75
2022-08-18T10:46:59.954Z,11.65
2022-08-18T10:49:33.325Z,9.18
2022-08-18T10:52:29.409Z,10.55
2022-08-18T10:55:22.453Z,8.18
2022-08-18T10:58:28.062Z,10.00
2022-08-18T11:01:15.660Z,13.35
2022-08-18T11:04:33.501Z,7.60
2022-08-18T11:07:18.187Z,10.98
2022-08-18T11:10:04.505Z,6.40
2022-08-18T11:13:10.070Z,7.32
2022-08-18T11:15:54.810Z,6.95
2022-08-18T11:18:50.499Z,5.68
2022-08-18T11:21:51.638Z,4.40
2022-08-18T11:24:31.598Z,4.95
2022-08-18T11:27:23.958Z,6.68
2022-08-18T11:30:00.996Z,6.60
2022-08-18T11:32:35.346Z,9.30
2022-08-18T11:35:14.410Z,7.28
2022-08-18T11:38:00.580Z,6.93
2022-08-18T11:43:41.578Z,8.45
2022-08-18T11:46:28.258Z,12.90
2022-08-18T11:49:30.128Z,8.75
2022-08-18T11:58:50.659Z,8.25
2022-08-18T12:01:42.117Z,7.97
2022-08-18T12:04:14.566Z,10.43
2022-08-18T12:06:55.490Z,13.05
2022-08-18T12:10:16.374Z,10.63
2022-08-18T12:12:33.102Z,8.68
2022-08-18T12:15:24.115Z,8.40
2022-08-18T12:20:29.908Z,7.38
2022-08-18T12:23:01.906Z,14.88
2022-08-18T12:25:33.878Z,9.43
2022-08-18T12:28:11.183Z,4.72
2022-08-18T12:30:43.317Z,7.80
2022-08-18T12:33:16.698Z,13.48
2022-08-18T12:35:59.153Z,8.40
2022-08-18T12:38:36.448Z,8.98
2022-08-18T12:41:12.000Z,7.82
2022-08-18T12:43:43.996Z,15.63
2022-08-18T12:46:31.220Z,10.40
2022-08-18T12:49:05.321Z,10.20
2022-08-18T12:51:37.733Z,12.50
2022-08-18T12:57:06.642Z,11.77
2022-08-18T12:59:38.830Z,7.43
2022-08-18T13:02:13.781Z,6.88
2022-08-18T13:04:47.551Z,13.80
2022-08-18T13:07:19.713Z,8.85
2022-08-18T13:09:54.616Z,16.17
2022-08-18T13:12:27.514Z,10.98
2022-08-18T13:15:00.935Z,8.82
2022-08-18T13:17:34.367Z,9.15
2022-08-18T13:20:13.508Z,10.18
2022-08-18T13:22:45.932Z,12.48
2022-08-18T13:25:32.713Z,9.98
2022-08-18T13:28:11.918Z,14.88
2022-08-18T13:30:46.336Z,8.68
2022-08-18T13:33:34.701Z,13.98
2022-08-18T13:36:10.745Z,12.80
2022-08-18T13:38:43.582Z,9.18
2022-08-18T13:41:16.903Z,9.85
2022-08-18T13:43:49.046Z,9.45
2022-08-18T13:46:29.819Z,9.70
2022-08-18T13:49:03.591Z,7.82
2022-08-18T13:51:35.971Z,11.10
2022-08-18T13:54:29.659Z,10.32
2022-08-18T13:57:04.997Z,8.10
2022-08-18T13:59:38.898Z,9.52
2022-08-18T14:02:18.957Z,11.40
2022-08-18T14:04:51.767Z,10.90
2022-08-18T14:07:27.799Z,8.52
2022-08-18T14:10:03.676Z,8.98
2022-08-18T14:12:38.199Z,10.20
2022-08-18T14:15:15.430Z,9.88
2022-08-18T14:17:47.866Z,10.57
2022-08-18T14:20:39.245Z,13.10
2022-08-18T14:26:34.035Z,14.27
2022-08-18T14:29:06.126Z,8.90
2022-08-18T14:31:45.081Z,9.57
2022-08-18T14:34:21.674Z,11.43
2022-08-18T14:36:53.937Z,12.43
2022-08-18T14:39:27.654Z,12.63
2022-08-18T14:41:59.784Z,14.55
2022-08-18T14:44:35.157Z,10.77
2022-08-18T14:47:07.472Z,14.05
2022-08-18T14:49:42.989Z,11.93
2022-08-18T14:52:21.478Z,15.75
2022-08-18T14:54:54.130Z,11.93
2022-08-18T14:57:26.937Z,9.15
2022-08-18T14:59:59.016Z,10.82
2022-08-18T15:02:31.025Z,12.93
2022-08-18T15:05:19.430Z,9.45
2022-08-18T15:07:56.092Z,9.98
2022-08-18T15:10:29.449Z,10.20
2022-08-18T15:13:03.683Z,13.45
2022-08-18T15:15:50.773Z,10.57
2022-08-18T15:18:24.093Z,13.80
2022-08-18T15:21:19.527Z,11.40
2022-08-18T15:24:26.884Z,13.18
2022-08-18T15:27:05.727Z,10.48
2022-08-18T15:29:41.378Z,14.30
2022-08-18T15:32:17.603Z,14.98
2022-08-18T15:34:51.454Z,13.27
2022-08-18T15:37:24.428Z,6.15
2022-08-18T15:40:21.945Z,9.98
2022-08-18T15:43:10.279Z,9.68
2022-08-18T15:45:56.129Z,10.35
2022-08-18T15:48:30.014Z,10.63
2022-08-18T15:51:11.946Z,14.35
2022-08-18T15:53:45.017Z,10.55
2022-08-18T15:56:21.732Z,13.50
2022-08-18T15:58:54.260Z,8.85
2022-08-18T16:01:32.327Z,10.80
2022-08-18T16:06:59.653Z,11.32
2022-08-18T16:09:31.710Z,12.43
2022-08-18T16:12:04.155Z,12.73
2022-08-18T16:14:40.799Z,12.85
2022-08-18T16:17:23.787Z,9.75
2022-08-18T16:20:02.192Z,8.47
2022-08-18T16:22:37.489Z,14.40
2022-08-18T16:25:10.289Z,12.60
2022-08-18T16:27:43.419Z,7.75
2022-08-18T16:30:20.816Z,16.67
2022-08-18T16:32:53.567Z,13.82
2022-08-18T16:35:25.594Z,10.88
2022-08-18T16:38:04.641Z,10.18
2022-08-18T16:40:37.670Z,9.90
2022-08-18T16:43:10.556Z,13.35
2022-08-18T16:45:42.985Z,12.95
2022-08-18T16:48:16.874Z,7.82
2022-08-18T16:50:51.334Z,9.13
2022-08-18T16:53:23.602Z,12.32
2022-08-18T16:55:55.655Z,14.50
2022-08-18T16:58:46.377Z,15.55
2022-08-18T17:01:48.795Z,12.90
2022-08-18T17:04:30.019Z,8.48
2022-08-18T17:07:07.179Z,10.82
2022-08-18T17:09:39.338Z,10.18
2022-08-18T17:12:11.787Z,19.80
2022-08-18T17:14:43.772Z,8.35
2022-08-18T17:17:19.018Z,9.20
2022-08-18T17:19:52.036Z,11.85
2022-08-18T17:22:23.998Z,11.07
2022-08-18T17:25:02.199Z,9.00
2022-08-18T17:27:37.602Z,6.53
2022-08-18T17:30:18.041Z,12.27
2022-08-18T17:32:56.733Z,11.43
2022-08-18T17:35:42.018Z,10.57
2022-08-18T17:38:38.284Z,8.25
2022-08-18T17:41:12.659Z,6.93
2022-08-18T17:46:41.072Z,9.30
2022-08-18T17:49:22.812Z,11.25
2022-08-18T17:51:56.777Z,8.73
2022-08-18T17:54:38.240Z,8.93
2022-08-18T17:57:25.457Z,22.38
2022-08-18T18:00:17.071Z,7.72
2022-08-18T18:02:49.316Z,9.05
2022-08-18T18:05:22.025Z,9.73
2022-08-18T18:07:59.250Z,10.48
2022-08-18T18:11:04.446Z,7.55
2022-08-18T18:13:36.999Z,10.68
2022-08-18T18:16:37.171Z,7.47
2022-08-18T18:19:13.437Z,9.60
2022-08-18T18:22:00.556Z,8.70
2022-08-18T18:24:38.381Z,9.00
2022-08-18T18:27:40.733Z,9.48
2022-08-18T18:30:19.297Z,9.32
2022-08-18T18:33:05.166Z,12.75
2022-08-18T18:35:54.878Z,10.82
2022-08-18T18:38:39.804Z,6.57
2022-08-18T18:41:16.813Z,7.13
2022-08-18T18:43:51.272Z,11.60
2022-08-18T18:46:31.803Z,9.38
2022-08-18T18:49:15.693Z,7.05
2022-08-18T18:52:16.584Z,8.30
2022-08-18T18:55:05.011Z,8.95
2022-08-18T18:57:59.750Z,10.27
2022-08-18T19:01:10.089Z,9.50
2022-08-18T19:03:52.650Z,5.50
2022-08-18T19:06:28.583Z,8.45
2022-08-18T19:09:18.348Z,9.77
2022-08-18T19:11:57.888Z,8.63
2022-08-18T19:14:36.974Z,11.95
2022-08-18T19:17:33.100Z,11.43
2022-08-18T19:20:21.681Z,6.35
2022-08-18T19:23:19.525Z,7.07
2022-08-18T19:26:11.232Z,4.65
2022-08-18T19:29:13.144Z,5.93
2022-08-18T19:31:56.017Z,4.20
2022-08-18T19:34:37.814Z,5.97
2022-08-18T19:37:34.704Z,5.47
2022-08-18T19:40:22.020Z,3.92
2022-08-18T19:43:26.719Z,7.82
2022-08-18T19:46:36.158Z,5.93
2022-08-18T19:49:39.879Z,6.18
2022-08-18T19:52:47.228Z,8.30
2022-08-18T19:55:47.511Z,4.38
2022-08-18T19:59:15.744Z,5.30
2022-08-18T20:02:17.623Z,7.65
2022-08-18T20:05:29.153Z,7.05
2022-08-18T20:08:19.009Z,8.20
2022-08-18T20:11:16.707Z,7.57
2022-08-18T20:13:50.103Z,9.48
2022-08-18T20:16:43.886Z,4.78
2022-08-18T20:19:46.453Z,4.05
2022-08-18T20:22:21.762Z,4.63
2022-08-18T20:25:23.826Z,5.32
2022-08-18T20:27:58.705Z,8.83
2022-08-18T20:31:12.600Z,4.22
2022-08-18T20:34:04.184Z,4.88
2022-08-18T20:36:42.292Z,8.40
2022-08-18T20:39:48.220Z,8.35
2022-08-18T20:42:24.569Z,8.43
2022-08-18T20:45:11.054Z,11.90
2022-08-18T20:48:04.344Z,7.22
2022-08-18T20:50:58.199Z,5.70
2022-08-18T20:54:02.307Z,7.43
2022-08-18T20:56:43.456Z,7.22
2022-08-18T20:59:23.735Z,6.15
2022-08-18T21:02:06.007Z,5.93
2022-08-18T21:04:52.165Z,6.90
2022-08-18T21:07:37.916Z,8.00
2022-08-18T21:10:20.126Z,8.45
2022-08-18T21:12:57.285Z,9.88
2022-08-18T21:15:36.286Z,8.63
2022-08-18T21:18:21.671Z,8.50
2022-08-18T21:20:57.233Z,5.93
2022-08-18T21:23:33.917Z,8.77
2022-08-18T21:26:15.918Z,4.82
2022-08-18T21:28:54.010Z,6.72
2022-08-18T21:31:42.803Z,5.47
2022-08-18T21:34:34.910Z,5.25
2022-08-18T21:39:51.322Z,7.43
2022-08-18T21:42:43.633Z,5.97
2022-08-18T21:45:23.415Z,8.90
2022-08-18T21:47:59.363Z,6.55
2022-08-18T21:50:35.799Z,5.55
2022-08-18T21:53:28.170Z,8.93
2022-08-18T21:56:01.776Z,8.68
2022-08-18T21:58:40.879Z,9.70
2022-08-18T22:01:24.488Z,8.80
2022-08-18T22:04:02.957Z,7.28
2022-08-18T22:06:34.867Z,7.68
2022-08-18T22:09:32.754Z,4.82
2022-08-18T22:12:41.156Z,5.35
2022-08-18T22:15:20.484Z,4.38
2022-08-18T22:18:28.698Z,16.40
2022-08-18T22:21:02.374Z,7.68
2022-08-18T22:24:04.848Z,6.47
2022-08-18T22:26:38.616Z,8.82
2022-08-18T22:29:13.463Z,7.68
2022-08-18T22:31:49.876Z,7.03
2022-08-18T22:34:27.382Z,7.80
2022-08-18T22:37:12.106Z,5.30
2022-08-18T22:39:57.209Z,5.53
2022-08-18T22:42:35.073Z,7.13
2022-08-18T22:45:13.692Z,7.95
2022-08-18T22:47:45.726Z,6.07
2022-08-18T22:50:17.797Z,5.80
2022-08-18T22:52:50.214Z,8.88
2022-08-18T22:55:24.202Z,6.75
2022-08-18T22:57:57.193Z,7.43
2022-08-18T23:00:29.679Z,6.03
2022-08-18T23:03:02.192Z,9.18
2022-08-18T23:05:34.231Z,9.45
2022-08-18T23:08:06.203Z,5.25
2022-08-18T23:10:38.183Z,6.72
2022-08-18T23:13:11.311Z,9.10
2022-08-18T23:15:47.706Z,9.55
2022-08-18T23:18:21.791Z,7.72
2022-08-18T23:21:00.180Z,6.38
2022-08-18T23:23:32.325Z,13.55
2022-08-18T23:26:04.385Z,8.70
2022-08-18T23:28:36.407Z,8.48
2022-08-18T23:31:08.414Z,7.15
2022-08-18T23:33:41.733Z,7.95
2022-08-18T23:36:13.735Z,5.40
2022-08-18T23:38:45.704Z,7.07
2022-08-18T23:41:17.727Z,7.60
2022-08-18T23:43:50.792Z,10.20
2022-08-18T23:46:30.550Z,8.02
2022-08-18T23:49:09.248Z,11.18
2022-08-18T23:51:49.678Z,7.35
2022-08-18T23:54:30.255Z,8.52
2022-08-18T23:57:02.612Z,6.90
2022-08-18T23:59:34.585Z,10.95
